Time;durP1;ratioP1;P1;durP2;ratioP2;P2;SDS_P1;SDS_P2;PMS_P1;PMS_P2;Temp;Humidity;BMP_temperature;BMP_pressure;BME280_temperature;BME280_humidity;BME280_pressure;Samples;Min_cycle;Max_cycle;Signal;HPM_P1;HPM_P2
2021/01/22 00:02:14;;;;;;;1.00;0.50;;;;;;;9.12;73.58;97934.92;118404;1157;65181;-80
2021/01/22 00:04:40;;;;;;;1.40;0.60;;;;;;;9.16;74.26;97927.33;118444;1157;65201;-85
2021/01/22 00:07:06;;;;;;;1.00;0.50;;;;;;;9.21;73.08;97938.00;118565;1157;65114;-87
2021/01/22 00:09:32;;;;;;;0.40;0.30;;;;;;;9.24;73.69;97911.07;118493;1157;65162;-80
2021/01/22 00:11:59;;;;;;;0.43;0.40;;;;;;;9.29;72.74;97929.70;118664;1157;65067;-79
2021/01/22 00:14:26;;;;;;;0.60;0.37;;;;;;;9.33;72.34;97924.76;118477;1160;65204;-82
2021/01/22 00:16:52;;;;;;;1.47;0.60;;;;;;;9.37;71.42;97941.74;118619;1157;65136;-83
2021/01/22 00:19:19;;;;;;;0.93;0.57;;;;;;;9.44;72.11;97955.66;118679;1157;65168;-79
2021/01/22 00:21:45;;;;;;;0.87;0.70;;;;;;;9.49;71.80;97923.19;118411;1157;65124;-80
2021/01/22 00:24:11;;;;;;;1.35;1.20;;;;;;;9.54;70.82;97916.16;118479;1157;65127;-79
2021/01/22 00:26:37;;;;;;;0.97;0.60;;;;;;;9.56;71.86;97913.26;118650;1157;65063;-78
2021/01/22 00:29:03;;;;;;;1.07;0.50;;;;;;;9.54;70.59;97902.94;118362;1157;65119;-80
2021/01/22 00:31:44;;;;;;;1.10;0.50;;;;;;;9.55;71.35;97904.53;118305;1157;65265;-79
2021/01/22 00:34:11;;;;;;;1.07;0.60;;;;;;;9.57;70.26;97909.59;118498;1157;65155;-79
2021/01/22 00:37:01;;;;;;;0.73;0.50;;;;;;;9.58;70.22;97908.53;118550;1157;65127;-79
2021/01/22 00:39:49;;;;;;;0.63;0.43;;;;;;;9.59;70.48;97881.05;118681;1157;65118;-79
2021/01/22 00:42:23;;;;;;;0.85;0.50;;;;;;;9.58;69.92;97882.07;118611;1157;65131;-81
2021/01/22 00:45:12;;;;;;;2.57;0.60;;;;;;;9.65;69.61;97895.16;118350;1157;65178;-81
2021/01/22 00:47:38;;;;;;;1.20;0.70;;;;;;;9.70;69.80;97876.73;118336;1157;65126;-78
2021/01/22 00:50:05;;;;;;;1.17;0.70;;;;;;;9.72;69.20;97898.47;118324;1156;65187;-78
2021/01/22 00:52:41;;;;;;;1.60;0.70;;;;;;;9.72;69.71;97874.65;118417;1157;65582;-80
2021/01/22 00:55:20;;;;;;;2.07;0.60;;;;;;;9.71;69.34;97884.44;118344;1157;65092;-80
2021/01/22 00:57:46;;;;;;;0.90;0.50;;;;;;;9.80;68.58;97868.97;118979;1157;65167;-82
2021/01/22 01:00:13;;;;;;;1.17;0.50;;;;;;;9.87;67.81;97877.55;118355;1157;65182;-81
2021/01/22 01:02:39;;;;;;;2.03;0.60;;;;;;;9.91;67.90;97865.44;118547;1157;65140;-80
2021/01/22 01:05:08;;;;;;;1.85;0.75;;;;;;;9.92;67.75;97876.83;118797;1157;65040;-79
2021/01/22 01:07:34;;;;;;;0.90;0.60;;;;;;;9.93;67.99;97865.20;118489;1157;65134;-80
2021/01/22 01:10:03;;;;;;;0.90;0.60;;;;;;;9.95;67.88;97841.94;118363;1157;65136;-80
2021/01/22 01:12:30;;;;;;;1.20;0.40;;;;;;;9.96;67.71;97833.73;118814;1157;65163;-83
2021/01/22 01:14:56;;;;;;;0.90;0.47;;;;;;;9.92;68.07;97845.84;118461;1157;65140;-80
2021/01/22 01:17:22;;;;;;;0.90;0.50;;;;;;;9.90;68.21;97855.08;118683;1157;65223;-80
2021/01/22 01:19:48;;;;;;;0.87;0.60;;;;;;;9.86;68.21;97851.30;118986;1157;65239;-80
2021/01/22 01:22:38;;;;;;;0.53;0.30;;;;;;;9.86;68.45;97830.13;118428;1157;65171;-80
2021/01/22 01:25:05;;;;;;;0.97;0.70;;;;;;;9.85;68.17;97855.01;118359;1157;65139;-80
2021/01/22 01:27:32;;;;;;;0.90;0.43;;;;;;;9.83;68.69;97849.94;118292;1157;65079;-79
2021/01/22 01:29:59;;;;;;;0.70;0.40;;;;;;;9.82;68.09;97836.94;118430;1157;65139;-80
2021/01/22 01:32:27;;;;;;;1.85;0.40;;;;;;;9.80;68.33;97839.84;118267;1157;65120;-78
2021/01/22 01:34:55;;;;;;;1.40;0.60;;;;;;;9.80;68.75;97840.64;118394;1157;65213;-81
2021/01/22 01:37:24;;;;;;;0.37;0.30;;;;;;;9.78;68.95;97841.93;118528;1157;65187;-80
2021/01/22 01:39:50;;;;;;;1.57;0.80;;;;;;;9.77;68.48;97819.92;118520;1157;65140;-80
2021/01/22 01:42:17;;;;;;;1.33;0.77;;;;;;;9.75;68.51;97822.04;118588;1157;65136;-81
2021/01/22 01:44:43;;;;;;;0.80;0.50;;;;;;;9.74;68.93;97815.13;118469;1157;65082;-80
2021/01/22 01:47:09;;;;;;;2.33;0.50;;;;;;;9.73;69.31;97829.42;118285;1157;65169;-80
2021/01/22 01:49:36;;;;;;;3.07;0.60;;;;;;;9.72;69.14;97801.33;118503;1157;65169;-79
2021/01/22 01:52:02;;;;;;;0.80;0.50;;;;;;;9.75;68.43;97805.33;118467;1157;65789;-79
2021/01/22 01:54:30;;;;;;;1.30;0.60;;;;;;;9.76;68.78;97802.45;118423;1157;65050;-80
2021/01/22 01:56:56;;;;;;;1.10;0.50;;;;;;;9.76;68.50;97799.80;118429;1156;65120;-81
2021/01/22 01:59:22;;;;;;;1.10;0.70;;;;;;;9.78;68.16;97812.81;118433;1157;66223;-80
2021/01/22 02:01:51;;;;;;;1.50;0.60;;;;;;;9.82;67.77;97815.76;118704;1157;62642;-82
2021/01/22 02:04:17;;;;;;;1.55;0.50;;;;;;;9.82;68.12;97789.28;118874;1157;65226;-82
2021/01/22 02:06:44;;;;;;;1.43;0.63;;;;;;;9.80;68.09;97782.40;118295;1157;65203;-80
2021/01/22 02:09:10;;;;;;;0.60;0.40;;;;;;;9.83;67.62;97780.31;118519;1157;65138;-80
2021/01/22 02:11:38;;;;;;;1.33;0.60;;;;;;;9.84;67.90;97776.61;118352;1157;65127;-79
2021/01/22 02:14:05;;;;;;;1.20;0.70;;;;;;;9.79;67.94;97778.13;118469;1155;65169;-79
2021/01/22 02:16:33;;;;;;;1.47;0.40;;;;;;;9.84;67.38;97776.61;118312;1157;65136;-79
2021/01/22 02:19:02;;;;;;;1.10;0.47;;;;;;;9.83;67.26;97759.13;118367;1157;65127;-79
2021/01/22 02:21:34;;;;;;;1.17;0.70;;;;;;;9.83;67.39;97764.42;118509;1157;65130;-81
2021/01/22 02:24:07;;;;;;;1.67;0.70;;;;;;;9.83;67.04;97759.13;118278;1156;65220;-79
2021/01/22 02:27:11;;;;;;;1.70;0.50;;;;;;;9.84;66.61;97776.61;118462;1157;65120;-79
2021/01/22 02:29:38;;;;;;;1.53;0.50;;;;;;;9.88;66.91;97761.84;118561;1157;65143;-81
2021/01/22 02:32:07;;;;;;;1.23;0.50;;;;;;;9.87;66.46;97760.25;118530;1157;65228;-80
2021/01/22 02:34:37;;;;;;;1.17;0.73;;;;;;;9.86;66.89;97758.63;118422;1157;65137;-80
2021/01/22 02:37:07;;;;;;;1.03;0.50;;;;;;;9.85;66.78;97772.93;118402;1157;65139;-79
2021/01/22 02:39:37;;;;;;;0.93;0.50;;;;;;;9.84;67.52;97752.78;118326;1157;65194;-82
2021/01/22 02:42:06;;;;;;;1.10;0.70;;;;;;;9.83;67.26;97769.72;118796;1157;65114;-84
2021/01/22 02:44:32;;;;;;;1.30;0.73;;;;;;;9.83;66.67;97751.98;118678;1157;65206;-81
2021/01/22 02:47:00;;;;;;;1.30;0.77;;;;;;;9.81;67.10;97746.13;118551;1157;65076;-80
2021/01/22 02:49:27;;;;;;;1.23;0.67;;;;;;;9.78;66.99;97752.72;118477;1157;65155;-79
2021/01/22 02:51:53;;;;;;;1.20;0.53;;;;;;;9.77;67.06;97747.66;118705;1157;65178;-80
2021/01/22 02:54:19;;;;;;;2.00;0.70;;;;;;;9.74;67.58;97730.41;118697;1157;66176;-82
2021/01/22 02:56:52;;;;;;;1.60;0.83;;;;;;;9.70;67.44;97744.38;118497;1157;65130;-81
2021/01/22 03:00:02;;;;;;;1.30;0.60;;;;;;;9.65;68.03;97738.99;118647;1157;65066;-81
2021/01/22 03:02:49;;;;;;;1.50;0.67;;;;;;;9.59;68.59;97723.05;118621;1157;66237;-81
2021/01/22 03:05:20;;;;;;;1.73;0.60;;;;;;;9.59;68.49;97744.22;118323;1157;65117;-80
2021/01/22 03:07:52;;;;;;;1.40;0.60;;;;;;;9.59;68.64;97738.13;118538;1157;66225;-80
2021/01/22 03:10:21;;;;;;;2.43;0.70;;;;;;;9.61;68.43;97740.55;118864;1157;65101;-79
2021/01/22 03:12:50;;;;;;;1.17;0.57;;;;;;;9.61;68.71;97728.11;118390;1157;65124;-81
2021/01/22 03:15:19;;;;;;;1.20;0.60;;;;;;;9.61;68.71;97730.75;118723;1157;64983;-81
2021/01/22 03:17:46;;;;;;;1.87;0.70;;;;;;;9.61;68.47;97725.46;118750;1157;65150;-79
2021/01/22 03:20:14;;;;;;;2.00;0.60;;;;;;;9.61;68.28;97733.40;118571;1157;65225;-79
2021/01/22 03:22:41;;;;;;;1.40;0.60;;;;;;;9.60;68.07;97729.13;118824;1157;65138;-78
2021/01/22 03:25:13;;;;;;;1.57;0.60;;;;;;;9.63;67.97;97741.91;118681;1157;65325;-80
2021/01/22 03:27:40;;;;;;;1.73;0.70;;;;;;;9.66;68.40;97727.38;118369;1157;65127;-79
2021/01/22 03:30:07;;;;;;;1.57;0.70;;;;;;;9.66;68.51;97722.87;118350;1157;65133;-82
2021/01/22 03:32:34;;;;;;;2.23;0.70;;;;;;;9.68;68.30;97727.94;118538;1157;65022;-79
2021/01/22 03:35:01;;;;;;;1.45;0.70;;;;;;;9.71;68.14;97733.56;118468;1157;65504;-80
2021/01/22 03:37:27;;;;;;;1.53;0.70;;;;;;;9.74;67.98;97714.53;118529;1160;65120;-83
2021/01/22 03:39:53;;;;;;;2.37;0.67;;;;;;;9.78;67.94;97710.36;118545;1157;65156;-80
2021/01/22 03:42:19;;;;;;;1.20;0.50;;;;;;;9.78;68.01;97717.51;118474;1157;65140;-81
2021/01/22 03:44:45;;;;;;;2.53;1.10;;;;;;;9.77;68.18;97721.98;118496;1157;65207;-80
2021/01/22 03:47:12;;;;;;;2.00;0.77;;;;;;;9.82;67.66;97733.69;118469;1157;65145;-81
2021/01/22 03:49:38;;;;;;;1.30;0.70;;;;;;;9.84;67.08;97729.77;118697;1157;65143;-81
2021/01/22 03:52:04;;;;;;;1.57;0.70;;;;;;;9.90;66.93;97725.34;118417;1157;65239;-79
2021/01/22 03:54:31;;;;;;;1.90;0.63;;;;;;;9.93;66.89;97720.36;118778;1157;65162;-79
2021/01/22 03:56:59;;;;;;;1.43;0.60;;;;;;;9.96;66.01;97719.06;118564;1157;66239;-82
2021/01/22 03:59:25;;;;;;;3.53;0.80;;;;;;;9.96;66.42;97732.31;118388;1157;65175;-80
2021/01/22 04:01:51;;;;;;;1.47;0.50;;;;;;;10.00;66.61;97733.42;118332;1157;65084;-81
2021/01/22 04:04:18;;;;;;;2.40;0.60;;;;;;;10.01;65.79;97716.51;118393;1157;65164;-83
2021/01/22 04:07:00;;;;;;;1.20;0.70;;;;;;;10.02;66.01;97714.66;118486;1157;65159;-80
2021/01/22 04:09:28;;;;;;;3.60;0.80;;;;;;;10.01;66.23;97719.16;118510;1157;65063;-82
2021/01/22 04:11:54;;;;;;;2.30;0.50;;;;;;;9.97;66.38;97710.09;118484;1157;65111;-78
2021/01/22 04:14:20;;;;;;;0.77;0.50;;;;;;;9.96;66.56;97706.63;118385;1157;65127;-81
2021/01/22 04:16:46;;;;;;;1.85;0.45;;;;;;;9.96;66.30;97711.12;118471;1157;65136;-82
2021/01/22 04:19:12;;;;;;;1.73;0.60;;;;;;;9.96;66.08;97727.02;118566;1157;65172;-81
2021/01/22 04:21:39;;;;;;;1.42;0.65;;;;;;;9.98;66.07;97719.63;118574;1157;65220;-80
2021/01/22 04:24:06;;;;;;;1.73;1.13;;;;;;;10.00;66.11;97715.69;118431;1157;65212;-82
2021/01/22 04:26:32;;;;;;;3.07;0.73;;;;;;;10.00;66.70;97738.72;118877;1157;65162;-79
2021/01/22 04:28:58;;;;;;;2.23;0.67;;;;;;;9.98;66.40;97730.22;118585;1157;65162;-80
2021/01/22 04:31:24;;;;;;;2.93;0.80;;;;;;;10.00;66.59;97720.19;118388;1157;65223;-78
2021/01/22 04:33:50;;;;;;;3.13;0.60;;;;;;;10.01;65.88;97708.56;118481;1157;65173;-82
2021/01/22 04:36:17;;;;;;;1.60;0.57;;;;;;;10.03;66.90;97738.25;118706;1157;65132;-82
2021/01/22 04:38:43;;;;;;;1.30;0.70;;;;;;;9.99;67.66;97745.87;118537;1157;65111;-80
2021/01/22 04:41:11;;;;;;;2.37;0.40;;;;;;;9.93;69.26;97788.41;118475;1157;65091;-80
2021/01/22 04:43:44;;;;;;;1.33;0.50;;;;;;;9.80;70.12;97765.72;118396;1157;65107;-80
2021/01/22 04:46:11;;;;;;;2.73;0.70;;;;;;;9.67;71.20;97782.73;118578;1157;65098;-81
2021/01/22 04:49:21;;;;;;;2.10;0.70;;;;;;;9.51;72.99;97826.65;118784;1157;65138;-80
2021/01/22 04:51:51;;;;;;;2.20;0.80;;;;;;;8.74;75.91;97896.58;118555;1157;65264;-81
2021/01/22 04:54:26;;;;;;;0.93;0.30;;;;;;;7.76;77.64;97901.41;118884;1157;65127;-82
2021/01/22 04:56:59;;;;;;;1.45;0.45;;;;;;;7.02;80.92;97931.58;118714;1157;65197;-87
2021/01/22 04:59:34;;;;;;;1.70;0.40;;;;;;;6.58;82.51;97943.97;119063;1119;66224;-81
2021/01/22 05:02:01;;;;;;;2.40;0.40;;;;;;;6.24;84.70;97940.81;118733;1157;65133;-83
2021/01/22 05:04:28;;;;;;;1.07;0.23;;;;;;;5.92;84.11;97975.01;118497;1157;65143;-80
2021/01/22 05:06:54;;;;;;;0.40;0.30;;;;;;;5.66;82.78;97974.14;118803;1157;65039;-81
2021/01/22 05:09:20;;;;;;;0.23;0.20;;;;;;;5.39;82.92;98006.82;118591;1157;65201;-81
2021/01/22 05:11:52;;;;;;;0.30;0.23;;;;;;;5.18;83.13;98011.31;118829;1157;65105;-80
2021/01/22 05:14:20;;;;;;;0.20;0.20;;;;;;;4.95;83.57;98032.81;118711;1157;65102;-82
2021/01/22 05:17:07;;;;;;;0.20;0.20;;;;;;;4.74;83.70;98020.70;118683;1157;65255;-80
2021/01/22 05:19:35;;;;;;;0.47;0.40;;;;;;;4.52;82.81;98038.45;118577;1157;65207;-79
2021/01/22 05:22:02;;;;;;;0.40;0.40;;;;;;;4.33;83.70;98045.30;118725;1157;65111;-79
2021/01/22 05:24:30;;;;;;;0.77;0.40;;;;;;;4.19;84.61;98054.19;118938;1157;64412;-86
2021/01/22 05:27:14;;;;;;;0.27;0.20;;;;;;;4.06;85.53;98060.20;118800;1157;66320;-78
2021/01/22 05:30:03;;;;;;;1.00;0.40;;;;;;;3.95;85.95;98111.39;118701;1157;65857;-79
2021/01/22 05:32:31;;;;;;;0.20;0.20;;;;;;;3.83;85.78;98092.00;118784;1157;65136;-80
2021/01/22 05:34:58;;;;;;;0.20;0.20;;;;;;;3.76;85.77;98109.50;119143;1157;65473;-81
2021/01/22 05:37:25;;;;;;;0.40;0.40;;;;;;;3.68;85.03;98128.84;118632;1157;65134;-81
2021/01/22 05:40:12;;;;;;;0.40;0.40;;;;;;;3.63;85.65;98095.34;119201;1157;65126;-80
2021/01/22 05:42:50;;;;;;;0.30;0.20;;;;;;;3.57;86.26;98124.95;118478;1157;65181;-79
2021/01/22 05:45:19;;;;;;;3.27;1.20;;;;;;;3.53;85.25;98157.80;119025;1157;65127;-81
2021/01/22 05:47:46;;;;;;;0.63;0.40;;;;;;;3.51;85.87;98151.93;118741;1157;65123;-79
2021/01/22 05:50:12;;;;;;;1.50;0.73;;;;;;;3.50;85.65;98162.59;118945;1157;65196;-82
2021/01/22 05:52:39;;;;;;;1.03;0.53;;;;;;;3.46;85.51;98170.02;118583;1157;65155;-82
2021/01/22 05:55:19;;;;;;;2.07;1.00;;;;;;;3.44;86.95;98166.78;118740;1157;65278;-81
2021/01/22 05:57:46;;;;;;;2.33;0.90;;;;;;;3.45;86.07;98177.08;119074;1157;65127;-82
2021/01/22 06:00:14;;;;;;;2.25;1.15;;;;;;;3.44;85.38;98157.13;118851;1157;65260;-80
2021/01/22 06:02:42;;;;;;;2.75;1.20;;;;;;;3.42;86.46;98169.62;118587;1157;65143;-81
2021/01/22 06:05:11;;;;;;;2.10;1.00;;;;;;;3.38;85.85;98181.48;118481;1157;65001;-82
2021/01/22 06:07:40;;;;;;;4.63;1.60;;;;;;;3.36;84.58;98193.13;118603;1157;65123;-81
2021/01/22 06:10:19;;;;;;;4.53;1.57;;;;;;;3.31;84.83;98206.00;118463;1157;65155;-82
2021/01/22 06:12:54;;;;;;;1.93;1.10;;;;;;;3.26;84.03;98207.38;118539;1157;65188;-81
2021/01/22 06:15:23;;;;;;;5.90;2.53;;;;;;;3.22;83.66;98219.23;118372;1157;65232;-79
2021/01/22 06:17:51;;;;;;;1.93;1.17;;;;;;;3.19;84.06;98217.00;118506;1157;65129;-82
2021/01/22 06:20:24;;;;;;;5.60;2.10;;;;;;;3.15;84.81;98223.61;118245;1157;65165;-78
2021/01/22 06:23:06;;;;;;;7.63;2.17;;;;;;;3.14;84.96;98235.08;119447;1157;65076;-81
2021/01/22 06:25:34;;;;;;;3.90;2.07;;;;;;;3.12;84.74;98244.12;118352;1157;65171;-80
2021/01/22 06:28:05;;;;;;;4.10;1.45;;;;;;;3.11;85.30;98245.94;118441;1157;65101;-78
2021/01/22 06:30:33;;;;;;;3.93;1.67;;;;;;;3.11;85.18;98245.94;118282;1157;65185;-80
2021/01/22 06:33:03;;;;;;;8.15;3.00;;;;;;;3.10;84.54;98244.30;118564;1157;65278;-80
2021/01/22 06:36:01;;;;;;;4.75;2.25;;;;;;;3.10;85.73;98230.41;118603;1157;65166;-80
2021/01/22 06:38:32;;;;;;;7.23;3.20;;;;;;;3.09;85.85;98245.31;118700;1157;65119;-82
2021/01/22 06:41:14;;;;;;;5.27;2.73;;;;;;;3.10;85.12;98248.73;118364;1157;65657;-81
2021/01/22 06:43:41;;;;;;;5.95;2.55;;;;;;;3.10;84.92;98254.78;118499;1157;65136;-82
2021/01/22 06:46:48;;;;;;;9.93;4.63;;;;;;;3.11;86.08;98266.89;118549;1157;65283;-81
2021/01/22 06:49:30;;;;;;;5.35;2.05;;;;;;;3.13;85.34;98272.76;118498;1157;65133;-83
2021/01/22 06:52:13;;;;;;;8.60;4.20;;;;;;;3.15;86.09;98277.82;118595;1157;65127;-82
2021/01/22 06:55:01;;;;;;;6.70;2.90;;;;;;;3.17;85.12;98283.69;118692;1157;63884;-81
2021/01/22 06:57:27;;;;;;;4.93;1.87;;;;;;;3.19;85.56;98300.03;118416;1157;65101;-81
2021/01/22 06:59:53;;;;;;;9.93;3.47;;;;;;;3.19;86.23;98300.83;119066;1157;65075;-82
2021/01/22 07:02:32;;;;;;;9.17;4.83;;;;;;;3.21;85.73;98306.70;118515;1157;65156;-82
2021/01/22 07:05:31;;;;;;;9.00;4.00;;;;;;;3.25;84.77;98296.64;118643;1157;62602;-83
2021/01/22 07:07:57;;;;;;;6.30;2.30;;;;;;;3.29;84.90;98304.95;118551;1157;65223;-84
2021/01/22 07:10:56;;;;;;;9.80;5.80;;;;;;;3.30;85.28;98306.58;118441;1157;65155;-81
2021/01/22 07:13:33;;;;;;;10.53;4.00;;;;;;;3.32;84.77;98318.49;118468;1157;65063;-84
2021/01/22 07:16:21;;;;;;;13.30;5.27;;;;;;;3.33;84.17;98316.67;118738;1157;65175;-81
2021/01/22 07:18:57;;;;;;;9.50;5.53;;;;;;;3.39;84.03;98313.31;118754;1157;65223;-83
2021/01/22 07:21:38;;;;;;;15.25;6.50;;;;;;;3.44;84.20;98324.03;118779;1157;65050;-82
2021/01/22 07:24:13;;;;;;;13.70;6.77;;;;;;;3.47;83.01;98313.19;118717;1157;65134;-84
2021/01/22 07:26:48;;;;;;;11.33;5.83;;;;;;;3.51;82.23;98314.44;118818;1157;65303;-82
2021/01/22 07:29:24;;;;;;;13.93;5.17;;;;;;;3.55;81.81;98315.69;118517;1157;66252;-81
2021/01/22 07:31:56;;;;;;;13.90;5.33;;;;;;;3.56;81.53;98312.05;118772;1157;65130;-81
2021/01/22 07:34:44;;;;;;;8.87;3.20;;;;;;;3.57;81.32;98318.09;118598;1157;65107;-84
2021/01/22 07:37:17;;;;;;;15.30;6.40;;;;;;;3.57;81.89;98323.34;119146;1157;65164;-81
2021/01/22 07:39:46;;;;;;;13.03;6.07;;;;;;;3.57;81.79;98324.17;118606;1157;65264;-81
2021/01/22 07:42:18;;;;;;;16.80;6.13;;;;;;;3.59;80.83;98330.05;118532;1157;65034;-83
2021/01/22 07:44:47;;;;;;;13.70;6.03;;;;;;;3.60;81.43;98343.95;118639;1157;66146;-82
2021/01/22 07:47:30;;;;;;;14.15;6.40;;;;;;;3.60;81.57;98339.52;118611;1157;65047;-84
2021/01/22 07:50:02;;;;;;;10.20;5.30;;;;;;;3.63;81.53;98338.32;118484;1157;65137;-82
2021/01/22 07:52:29;;;;;;;11.50;6.30;;;;;;;3.63;81.27;98336.53;118590;1157;65143;-83
2021/01/22 07:54:56;;;;;;;13.70;6.33;;;;;;;3.66;80.83;98344.01;118532;1157;65855;-82
2021/01/22 07:57:25;;;;;;;9.00;5.65;;;;;;;3.66;81.33;98351.88;118658;1157;65140;-86
2021/01/22 07:59:53;;;;;;;12.23;5.67;;;;;;;3.68;81.07;98365.61;118763;1157;65156;-82
2021/01/22 08:02:24;;;;;;;12.07;6.20;;;;;;;3.70;80.92;98377.70;118744;1157;65134;-82
2021/01/22 08:04:59;;;;;;;16.07;6.80;;;;;;;3.72;81.90;98373.09;118473;1157;65255;-83
2021/01/22 08:07:38;;;;;;;15.03;6.35;;;;;;;3.74;80.88;98386.82;118619;1157;65139;-83
2021/01/22 08:10:10;;;;;;;15.20;7.27;;;;;;;3.74;81.70;98389.45;119222;1157;65585;-83
2021/01/22 08:12:37;;;;;;;19.97;7.87;;;;;;;3.76;80.81;98390.07;118490;1157;65198;-83
2021/01/22 08:15:17;;;;;;;23.57;8.27;;;;;;;3.78;80.90;98388.07;118387;1157;65200;-80
2021/01/22 08:17:48;;;;;;;21.83;9.20;;;;;;;3.79;80.73;98390.52;118584;1157;65156;-83
2021/01/22 08:20:17;;;;;;;22.50;8.57;;;;;;;3.80;80.88;98399.99;118683;1157;65132;-82
2021/01/22 08:22:50;;;;;;;24.40;10.10;;;;;;;3.80;81.37;98397.37;118391;1157;65165;-81
2021/01/22 08:25:16;;;;;;;21.00;8.70;;;;;;;3.82;81.67;98399.81;118552;1157;65124;-86
2021/01/22 08:27:42;;;;;;;20.90;9.87;;;;;;;3.84;81.26;98409.11;118965;1157;65232;-80
2021/01/22 08:30:09;;;;;;;27.63;9.87;;;;;;;3.87;80.64;98394.83;118539;1157;65172;-81
2021/01/22 08:32:36;;;;;;;29.10;11.57;;;;;;;3.90;81.30;98391.82;118645;1157;65143;-82
2021/01/22 08:35:03;;;;;;;31.75;11.55;;;;;;;3.94;81.23;98387.82;118619;1157;65184;-83
2021/01/22 08:37:29;;;;;;;31.57;12.50;;;;;;;3.96;80.84;98406.80;118592;1157;65159;-81
2021/01/22 08:39:59;;;;;;;31.40;9.95;;;;;;;3.99;80.79;98406.41;118645;1157;65140;-81
2021/01/22 08:42:29;;;;;;;34.10;12.97;;;;;;;4.03;80.82;98418.16;118499;1157;65118;-81
2021/01/22 08:45:00;;;;;;;31.87;12.23;;;;;;;4.06;80.10;98417.80;118810;1157;65110;-81
2021/01/22 08:47:30;;;;;;;31.30;7.93;;;;;;;4.07;80.47;98418.60;118983;1157;65201;-83
2021/01/22 08:50:04;;;;;;;29.83;12.00;;;;;;;4.12;80.92;98423.27;118668;1157;65135;-80
2021/01/22 08:52:30;;;;;;;27.03;11.07;;;;;;;4.15;79.82;98430.78;119024;1158;65127;-84
2021/01/22 08:54:58;;;;;;;40.50;13.65;;;;;;;4.17;79.28;98431.41;119439;1157;65226;-83
2021/01/22 08:57:28;;;;;;;39.55;14.00;;;;;;;4.19;78.75;98434.66;119118;1157;65124;-81
2021/01/22 08:59:59;;;;;;;49.95;12.50;;;;;;;4.20;79.83;98426.57;119065;1157;65147;-82
2021/01/22 09:02:56;;;;;;;43.50;14.50;;;;;;;4.22;78.77;98442.14;118493;1157;64847;-80
2021/01/22 09:05:25;;;;;;;34.65;13.40;;;;;;;4.23;79.60;98435.88;118333;1157;65247;-84
2021/01/22 09:08:08;;;;;;;41.37;14.83;;;;;;;4.26;79.38;98443.38;118330;1157;65284;-82
2021/01/22 09:10:41;;;;;;;41.20;14.65;;;;;;;4.28;78.82;98446.63;118771;1157;65127;-81
2021/01/22 09:13:15;;;;;;;43.55;14.30;;;;;;;4.32;78.92;98442.62;118998;1157;65134;-84
2021/01/22 09:15:43;;;;;;;43.77;15.27;;;;;;;4.35;78.43;98442.23;118611;1157;65044;-84
2021/01/22 09:18:23;;;;;;;46.70;14.40;;;;;;;4.37;78.50;98440.23;118446;1157;65210;-82
2021/01/22 09:21:01;;;;;;;38.63;16.10;;;;;;;4.38;78.78;98452.38;118605;1157;65249;-83
2021/01/22 09:23:31;;;;;;;44.33;15.63;;;;;;;4.39;78.25;98448.73;118537;1157;65110;-84
2021/01/22 09:26:00;;;;;;;49.40;14.77;;;;;;;4.41;78.28;98446.73;118841;1157;65475;-82
2021/01/22 09:28:27;;;;;;;49.47;18.13;;;;;;;4.40;78.83;98460.87;118621;1157;65159;-81
2021/01/22 09:30:54;;;;;;;52.90;17.75;;;;;;;4.42;79.29;98461.49;119166;1157;65153;-85
2021/01/22 09:33:20;;;;;;;51.95;19.70;;;;;;;4.41;77.97;98465.10;118995;1118;65292;-81
2021/01/22 09:35:46;;;;;;;51.83;19.27;;;;;;;4.44;77.70;98467.36;118794;1157;66246;-81
2021/01/22 09:38:12;;;;;;;54.70;20.80;;;;;;;4.48;78.58;98467.77;118769;1157;65189;-82
2021/01/22 09:40:39;;;;;;;58.10;18.50;;;;;;;4.52;77.64;98473.47;118931;1157;65269;-81
2021/01/22 09:43:06;;;;;;;59.20;20.40;;;;;;;4.57;78.11;98477.16;118912;1157;65217;-83
2021/01/22 09:45:33;;;;;;;63.23;23.37;;;;;;;4.62;77.39;98480.00;118504;1157;65179;-84
2021/01/22 09:48:00;;;;;;;50.85;19.40;;;;;;;4.68;77.33;98487.13;118639;1157;65158;-81
2021/01/22 09:50:27;;;;;;;50.53;18.93;;;;;;;4.71;76.56;98509.56;118726;1157;65346;-82
2021/01/22 09:53:16;;;;;;;53.00;16.95;;;;;;;4.75;75.83;98487.16;119033;1157;65162;-81
2021/01/22 09:55:51;;;;;;;66.35;24.10;;;;;;;4.84;76.94;98485.20;118812;1157;65155;-82
2021/01/22 09:58:17;;;;;;;61.40;24.33;;;;;;;4.90;75.37;98490.49;118922;1157;65156;-84
2021/01/22 10:00:43;;;;;;;67.85;24.70;;;;;;;4.95;76.06;98499.62;118549;1157;65034;-81
2021/01/22 10:03:10;;;;;;;69.83;22.90;;;;;;;4.97;74.48;98501.04;118795;1157;65200;-84
2021/01/22 10:05:45;;;;;;;64.00;24.13;;;;;;;4.99;74.56;98499.03;118651;1157;65302;-84
2021/01/22 10:08:30;;;;;;;67.97;25.67;;;;;;;5.03;74.98;98508.16;119317;1157;62647;-81
2021/01/22 10:11:12;;;;;;;59.33;24.63;;;;;;;5.09;74.63;98501.33;118690;1157;65754;-84
2021/01/22 10:13:38;;;;;;;61.53;22.63;;;;;;;5.15;74.52;98511.07;119140;1157;65124;-80
2021/01/22 10:16:04;;;;;;;60.10;25.33;;;;;;;5.16;74.58;98511.88;118933;1157;65130;-81
2021/01/22 10:18:30;;;;;;;74.77;29.73;;;;;;;5.16;73.66;98507.42;118667;1157;65204;-85
2021/01/22 10:20:57;;;;;;;84.43;28.53;;;;;;;5.20;74.21;98502.59;118811;1157;65172;-80
2021/01/22 10:23:23;;;;;;;68.50;25.85;;;;;;;5.24;74.50;98502.02;118786;1157;66189;-84
2021/01/22 10:25:49;;;;;;;84.07;28.00;;;;;;;5.25;73.17;98508.91;118843;1157;65117;-83
2021/01/22 10:28:15;;;;;;;53.85;21.55;;;;;;;5.30;74.45;98509.13;118656;1157;65092;-84
2021/01/22 10:30:42;;;;;;;81.00;28.70;;;;;;;5.31;73.84;98505.50;118875;1157;66343;-82
2021/01/22 10:33:08;;;;;;;72.17;23.63;;;;;;;5.32;73.27;98522.08;118609;1157;65179;-80
2021/01/22 10:35:35;;;;;;;75.97;25.53;;;;;;;5.31;73.32;98531.80;119319;1157;65136;-83
2021/01/22 10:38:04;;;;;;;71.30;25.77;;;;;;;5.31;73.09;98521.28;118635;1157;65139;-82
2021/01/22 10:40:31;;;;;;;67.40;27.60;;;;;;;5.32;73.47;98516.83;118719;1157;65088;-82
2021/01/22 10:42:57;;;;;;;66.73;25.23;;;;;;;5.35;73.40;98520.88;118577;1157;65247;-81
2021/01/22 10:45:23;;;;;;;67.97;23.07;;;;;;;5.39;74.15;98511.59;118531;1157;65082;-82
2021/01/22 10:47:49;;;;;;;76.37;29.17;;;;;;;5.46;73.83;98517.69;118622;1157;65206;-83
2021/01/22 10:50:17;;;;;;;73.07;28.50;;;;;;;5.54;73.19;98524.61;118673;1157;65054;-82
2021/01/22 10:52:43;;;;;;;66.77;23.80;;;;;;;5.61;72.73;98520.17;118700;1157;65210;-82
2021/01/22 10:55:11;;;;;;;66.90;25.77;;;;;;;5.71;72.62;98513.53;118705;1157;65225;-83
2021/01/22 10:57:38;;;;;;;66.17;19.87;;;;;;;5.78;71.94;98523.27;119341;1157;65046;-79
2021/01/22 11:00:05;;;;;;;73.93;25.93;;;;;;;5.80;71.61;98526.52;118584;1157;65175;-82
2021/01/22 11:02:31;;;;;;;79.07;28.17;;;;;;;5.85;71.73;98527.56;118536;1157;65113;-79
2021/01/22 11:04:58;;;;;;;52.90;19.30;;;;;;;5.85;70.66;98518.86;118468;1157;65168;-78
2021/01/22 11:07:24;;;;;;;52.97;21.53;;;;;;;5.87;71.49;98527.38;118546;1157;65110;-83
2021/01/22 11:09:50;;;;;;;62.77;20.13;;;;;;;5.89;71.11;98538.52;118461;1157;65136;-79
2021/01/22 11:12:16;;;;;;;62.73;25.80;;;;;;;5.90;71.02;98540.92;118491;1157;65168;-83
2021/01/22 11:14:47;;;;;;;63.03;26.60;;;;;;;5.93;71.32;98545.81;118774;1157;65207;-79
2021/01/22 11:17:13;;;;;;;52.13;25.73;;;;;;;5.95;70.38;98555.34;118615;1157;65130;-80
2021/01/22 11:19:39;;;;;;;54.27;22.67;;;;;;;5.98;70.20;98563.66;118563;1157;65050;-81
2021/01/22 11:22:06;;;;;;;48.67;17.90;;;;;;;5.96;69.71;98581.47;118479;1157;65114;-80
2021/01/22 11:24:34;;;;;;;56.70;19.30;;;;;;;5.95;69.98;98577.23;118885;1157;62790;-81
2021/01/22 11:27:01;;;;;;;50.95;21.15;;;;;;;5.94;69.08;98578.19;118924;1157;66310;-80
2021/01/22 11:29:27;;;;;;;52.73;18.43;;;;;;;5.91;69.56;98595.19;118657;1157;65110;-82
2021/01/22 11:31:54;;;;;;;51.18;19.62;;;;;;;5.93;69.60;98592.38;118534;1157;65082;-80
2021/01/22 11:34:21;;;;;;;60.17;21.17;;;;;;;5.96;69.19;98591.19;118498;1157;65146;-83
2021/01/22 11:36:47;;;;;;;60.70;20.30;;;;;;;5.94;69.82;98591.34;118472;1157;65283;-86
2021/01/22 11:39:13;;;;;;;49.23;18.43;;;;;;;5.95;69.88;98579.86;119160;1157;65072;-83
2021/01/22 11:41:39;;;;;;;49.13;18.47;;;;;;;6.00;69.47;98563.47;118792;1157;65107;-81
2021/01/22 11:44:09;;;;;;;47.10;18.80;;;;;;;6.02;69.38;98572.79;118639;1157;65236;-83